Ludwani — ZR9800 — position and weather

sailwx.info

Track history (hours):
 
Tides and Currents Weather Stations Pressure Air Temp Water Temp Dewpoint Dewpoint Depression Visibility Wind Speed Wind Dir Waves Ship Positions

Ludwani

Last reported at 2018-Jul-17 04:08 UTC. Time now 2018-Jul-18 18:29 UTC.
Position S 34°13' E 018°05'.

Length 44 m.

Type: Fishing. MMSI: 601180400.

Date/timePositionNaut miles runAvg speedWind from/ knotsBaromVisibWave heightAir tempDewpointWater temp
2018-Jul-17 04:08S 34°13' E 018°05'2 9.7
2018-Jul-17 03:53S 34°11' E 018°04'  
2018-Jul-14 17:01S 34°08' E 018°03'210.6
2018-Jul-14 16:51S 34°09' E 018°04'3 2.4
2018-Jul-14 15:41S 34°12' E 018°03'1 4.2
2018-Jul-14 15:25S 34°11' E 018°04'2 4.8
2018-Jul-14 15:00S 34°10' E 018°01'4 5.0
2018-Jul-14 14:06S 34°13' E 017°56'  
2018-Jul-11 20:46S 33°50' E 018°19'3 9.8
2018-Jul-11 20:29S 33°52' E 018°22'4 8.6
2018-Jul-11 20:00S 33°54' E 018°26'0 0.9
2018-Jul-11 19:30S 33°54' E 018°26'0 0.0
2018-Jul-11 19:00S 33°54' E 018°26'0 0.0
2018-Jul-11 18:12S 33°54' E 018°26'0 0.0
2018-Jul-11 17:58S 33°54' E 018°26'0 0.0
2018-Jul-11 17:30S 33°54' E 018°26'0 0.1
2018-Jul-11 16:59S 33°54' E 018°26'0 0.0
2018-Jul-11 16:20S 33°54' E 018°26'0 0.0
2018-Jul-11 15:58S 33°54' E 018°26'0 0.0
2018-Jul-11 15:29S 33°54' E 018°26'0 0.0
2018-Jul-11 14:58S 33°54' E 018°26'0 0.0
2018-Jul-11 14:25S 33°54' E 018°26'0 0.0
2018-Jul-11 13:53S 33°54' E 018°26'0 0.0
2018-Jul-11 13:27S 33°54' E 018°26'0 0.0
2018-Jul-11 12:59S 33°54' E 018°26'0 0.0
2018-Jul-11 12:29S 33°54' E 018°26'0 0.0
2018-Jul-11 11:58S 33°54' E 018°26'0 0.0
2018-Jul-11 11:21S 33°54' E 018°26'0 0.0
2018-Jul-11 10:57S 33°54' E 018°26'0 0.0
2018-Jul-11 10:30S 33°54' E 018°26'0 0.0
2018-Jul-11 09:59S 33°54' E 018°26'0 0.0
2018-Jul-11 09:29S 33°54' E 018°26'0 0.0
2018-Jul-11 08:58S 33°54' E 018°26'0 0.0
2018-Jul-11 08:30S 33°54' E 018°26'0 0.0
2018-Jul-11 07:53S 33°54' E 018°26'0 0.0
2018-Jul-11 07:30S 33°54' E 018°26'0 0.0
2018-Jul-11 06:59S 33°54' E 018°26'0 0.0
2018-Jul-11 06:30S 33°54' E 018°26'0 0.0
2018-Jul-11 06:00S 33°54' E 018°26'0 0.0
2018-Jul-11 01:59S 33°54' E 018°26'0 0.0
2018-Jul-11 01:18S 33°54' E 018°26'0 0.0
2018-Jul-11 00:53S 33°54' E 018°26'0 0.0
2018-Jul-11 00:30S 33°54' E 018°26'0 0.0
2018-Jul-10 23:54S 33°54' E 018°26'0 0.0
2018-Jul-10 15:00S 33°54' E 018°26'0 0.0
2018-Jul-10 14:29S 33°54' E 018°26'1 1.3
2018-Jul-10 14:00S 33°54' E 018°26'3 6.1
2018-Jul-10 13:30S 33°53' E 018°22'10 5.1
2018-Jul-10 11:33S 33°58' E 018°12'010.6
2018-Jul-10 11:30S 33°58' E 018°11'510.4
2018-Jul-10 11:00S 34°02' E 018°08'510.4
2018-Jul-10 10:30S 34°06' E 018°04'610.3
2018-Jul-10 09:57S 34°11' E 017°59'  
Track history (hours):
 
Tides and Currents Weather Stations Pressure Air Temp Water Temp Dewpoint Dewpoint Depression Visibility Wind Speed Wind Dir Waves Ship Positions

Ludwani

Last reported at 2018-Jul-17 04:08 UTC. Time now 2018-Jul-18 18:29 UTC.
Position S 34°13' E 018°05'.

Length 44 m.

Type: Fishing. MMSI: 601180400.

Date/timePositionNaut miles runAvg speedWind from/ knotsBaromVisibWave heightAir tempDewpointWater temp
2018-Jul-17 04:08S 34°13' E 018°05'2 9.7
2018-Jul-17 03:53S 34°11' E 018°04'  
2018-Jul-14 17:01S 34°08' E 018°03'210.6
2018-Jul-14 16:51S 34°09' E 018°04'3 2.4
2018-Jul-14 15:41S 34°12' E 018°03'1 4.2
2018-Jul-14 15:25S 34°11' E 018°04'2 4.8
2018-Jul-14 15:00S 34°10' E 018°01'4 5.0
2018-Jul-14 14:06S 34°13' E 017°56'  
2018-Jul-11 20:46S 33°50' E 018°19'3 9.8
2018-Jul-11 20:29S 33°52' E 018°22'4 8.6
2018-Jul-11 20:00S 33°54' E 018°26'0 0.9
2018-Jul-11 19:30S 33°54' E 018°26'0 0.0
2018-Jul-11 19:00S 33°54' E 018°26'0 0.0
2018-Jul-11 18:12S 33°54' E 018°26'0 0.0
2018-Jul-11 17:58S 33°54' E 018°26'0 0.0
2018-Jul-11 17:30S 33°54' E 018°26'0 0.1
2018-Jul-11 16:59S 33°54' E 018°26'0 0.0
2018-Jul-11 16:20S 33°54' E 018°26'0 0.0
2018-Jul-11 15:58S 33°54' E 018°26'0 0.0
2018-Jul-11 15:29S 33°54' E 018°26'0 0.0
2018-Jul-11 14:58S 33°54' E 018°26'0 0.0
2018-Jul-11 14:25S 33°54' E 018°26'0 0.0
2018-Jul-11 13:53S 33°54' E 018°26'0 0.0
2018-Jul-11 13:27S 33°54' E 018°26'0 0.0
2018-Jul-11 12:59S 33°54' E 018°26'0 0.0
2018-Jul-11 12:29S 33°54' E 018°26'0 0.0
2018-Jul-11 11:58S 33°54' E 018°26'0 0.0
2018-Jul-11 11:21S 33°54' E 018°26'0 0.0
2018-Jul-11 10:57S 33°54' E 018°26'0 0.0
2018-Jul-11 10:30S 33°54' E 018°26'0 0.0
2018-Jul-11 09:59S 33°54' E 018°26'0 0.0
2018-Jul-11 09:29S 33°54' E 018°26'0 0.0
2018-Jul-11 08:58S 33°54' E 018°26'0 0.0
2018-Jul-11 08:30S 33°54' E 018°26'0 0.0
2018-Jul-11 07:53S 33°54' E 018°26'0 0.0
2018-Jul-11 07:30S 33°54' E 018°26'0 0.0
2018-Jul-11 06:59S 33°54' E 018°26'0 0.0
2018-Jul-11 06:30S 33°54' E 018°26'0 0.0
2018-Jul-11 06:00S 33°54' E 018°26'0 0.0
2018-Jul-11 01:59S 33°54' E 018°26'0 0.0
2018-Jul-11 01:18S 33°54' E 018°26'0 0.0
2018-Jul-11 00:53S 33°54' E 018°26'0 0.0
2018-Jul-11 00:30S 33°54' E 018°26'0 0.0
2018-Jul-10 23:54S 33°54' E 018°26'0 0.0
2018-Jul-10 15:00S 33°54' E 018°26'0 0.0
2018-Jul-10 14:29S 33°54' E 018°26'1 1.3
2018-Jul-10 14:00S 33°54' E 018°26'3 6.1
2018-Jul-10 13:30S 33°53' E 018°22'10 5.1
2018-Jul-10 11:33S 33°58' E 018°12'010.6
2018-Jul-10 11:30S 33°58' E 018°11'510.4
2018-Jul-10 11:00S 34°02' E 018°08'510.4
2018-Jul-10 10:30S 34°06' E 018°04'610.3
2018-Jul-10 09:57S 34°11' E 017°59'  

Dump ship's entire track history